createdAt,value
2018-02-20T00:00:58.024Z,28.23
2018-02-20T00:03:26.210Z,26.30
2018-02-20T00:05:54.371Z,28.50
2018-02-20T00:08:23.478Z,28.77
2018-02-20T00:10:52.356Z,28.87
2018-02-20T00:13:20.542Z,28.25
2018-02-20T00:15:48.910Z,26.48
2018-02-20T00:18:17.037Z,29.08
2018-02-20T00:20:48.130Z,28.30
2018-02-20T00:23:17.071Z,26.10
2018-02-20T00:25:45.190Z,29.05
2018-02-20T00:28:13.184Z,29.58
2018-02-20T00:30:42.047Z,26.85
2018-02-20T00:33:10.227Z,26.23
2018-02-20T00:35:39.018Z,26.85
2018-02-20T00:38:07.246Z,28.62
2018-02-20T00:40:35.252Z,27.15
2018-02-20T00:43:03.641Z,28.50
2018-02-20T00:45:32.531Z,27.92
2018-02-20T00:48:00.796Z,26.67
2018-02-20T00:50:29.130Z,25.70
2018-02-20T00:52:57.350Z,26.40
2018-02-20T00:55:25.277Z,26.00
2018-02-20T00:57:53.398Z,26.65
2018-02-20T01:00:22.178Z,27.08
2018-02-20T01:02:50.351Z,27.05
2018-02-20T01:05:18.637Z,26.12
2018-02-20T01:07:46.896Z,26.48
2018-02-20T01:10:14.971Z,26.98
2018-02-20T01:12:43.463Z,26.50
2018-02-20T01:15:11.733Z,26.25
2018-02-20T01:17:39.811Z,24.25
2018-02-20T01:20:08.052Z,25.65
2018-02-20T01:22:36.353Z,25.70
2018-02-20T01:25:04.528Z,28.15
2018-02-20T01:27:33.433Z,25.17
2018-02-20T01:30:04.353Z,25.05
2018-02-20T01:32:33.186Z,25.65
2018-02-20T01:35:01.430Z,23.85
2018-02-20T01:37:29.602Z,25.25
2018-02-20T01:39:58.083Z,25.45
2018-02-20T01:42:27.893Z,26.67
2018-02-20T01:44:56.274Z,25.33
2018-02-20T01:47:24.446Z,24.92
2018-02-20T01:49:52.817Z,27.75
2018-02-20T01:52:20.936Z,25.40
2018-02-20T01:54:49.273Z,24.98
2018-02-20T01:57:18.390Z,27.02
2018-02-20T01:59:47.294Z,25.62
2018-02-20T02:02:15.523Z,25.75
2018-02-20T02:04:43.804Z,24.08
2018-02-20T02:07:11.973Z,27.85
2018-02-20T02:09:40.092Z,26.92
2018-02-20T02:12:08.434Z,27.77
2018-02-20T02:14:36.494Z,25.92
2018-02-20T02:17:04.564Z,24.83
2018-02-20T02:19:32.839Z,24.27
2018-02-20T02:22:00.923Z,24.60
2018-02-20T02:24:29.192Z,25.70
2018-02-20T02:26:57.469Z,28.00
2018-02-20T02:29:25.694Z,25.10
2018-02-20T02:31:53.708Z,26.00
2018-02-20T02:34:21.990Z,27.27
2018-02-20T02:36:50.324Z,23.83
2018-02-20T02:39:18.538Z,25.58
2018-02-20T02:41:46.811Z,22.55
2018-02-20T02:44:16.009Z,26.85
2018-02-20T02:46:44.231Z,25.00
2018-02-20T02:49:12.461Z,25.50
2018-02-20T02:51:40.731Z,25.70
2018-02-20T02:54:09.705Z,24.27
2018-02-20T02:56:37.910Z,25.77
2018-02-20T02:59:06.641Z,26.25
2018-02-20T03:01:34.964Z,27.15
2018-02-20T03:04:03.354Z,25.42
2018-02-20T03:06:31.630Z,25.27
2018-02-20T03:08:59.804Z,24.83
2018-02-20T03:11:30.537Z,25.02
2018-02-20T03:13:58.704Z,25.37
2018-02-20T03:16:27.593Z,23.77
2018-02-20T03:18:56.651Z,24.65
2018-02-20T03:21:24.900Z,25.58
2018-02-20T03:23:54.570Z,26.17
2018-02-20T03:26:22.957Z,26.05
2018-02-20T03:28:51.221Z,25.02
2018-02-20T03:31:19.510Z,25.70
2018-02-20T03:33:47.890Z,27.30
2018-02-20T03:36:16.148Z,27.33
2018-02-20T03:38:44.335Z,23.67
2018-02-20T03:41:13.059Z,26.12
2018-02-20T03:43:41.286Z,26.00
2018-02-20T03:46:09.359Z,24.42
2018-02-20T03:48:37.636Z,27.25
2018-02-20T03:51:05.704Z,28.00
2018-02-20T03:53:33.991Z,25.67
2018-02-20T03:56:02.051Z,26.87
2018-02-20T03:58:30.328Z,24.75
2018-02-20T04:00:58.398Z,24.95
2018-02-20T04:03:26.780Z,26.60
2018-02-20T04:05:54.962Z,25.77
2018-02-20T04:08:23.207Z,25.23
2018-02-20T04:10:51.194Z,23.23
2018-02-20T04:13:19.212Z,25.80
2018-02-20T04:15:47.291Z,24.67
2018-02-20T04:18:16.033Z,28.12
2018-02-20T04:20:44.312Z,22.33
2018-02-20T04:23:12.987Z,24.75
2018-02-20T04:25:41.157Z,23.98
2018-02-20T04:28:09.432Z,25.15
2018-02-20T04:30:37.574Z,26.45
2018-02-20T04:33:06.496Z,24.92
2018-02-20T04:35:34.675Z,27.35
2018-02-20T04:38:02.844Z,25.27
2018-02-20T04:40:31.031Z,24.85
2018-02-20T04:42:59.203Z,25.75
2018-02-20T04:45:27.275Z,23.67
2018-02-20T04:47:55.436Z,23.90
2018-02-20T04:50:23.506Z,26.30
2018-02-20T04:52:51.474Z,24.12
2018-02-20T04:55:19.550Z,25.58
2018-02-20T04:57:47.728Z,21.73
2018-02-20T05:00:15.899Z,24.65
2018-02-20T05:02:44.078Z,25.70
2018-02-20T05:05:13.677Z,24.42
2018-02-20T05:07:41.850Z,24.33
2018-02-20T05:10:10.024Z,23.80
2018-02-20T05:12:38.309Z,26.73
2018-02-20T05:15:06.474Z,24.67
2018-02-20T05:17:34.648Z,25.48
2018-02-20T05:20:02.822Z,24.52
2018-02-20T05:22:30.887Z,25.10
2018-02-20T05:24:58.859Z,25.40
2018-02-20T05:27:27.035Z,28.70
2018-02-20T05:29:55.216Z,27.35
2018-02-20T05:32:23.382Z,28.30
2018-02-20T05:34:51.562Z,26.50
2018-02-20T05:37:19.729Z,23.65
2018-02-20T05:39:47.797Z,26.58
2018-02-20T05:42:15.969Z,25.17
2018-02-20T05:44:44.143Z,26.20
2018-02-20T05:47:12.215Z,25.17
2018-02-20T05:49:40.283Z,26.33
2018-02-20T05:52:08.358Z,25.90
2018-02-20T05:54:36.541Z,27.00
2018-02-20T05:57:04.707Z,26.52
2018-02-20T05:59:32.884Z,26.62
2018-02-20T06:02:01.054Z,27.37
2018-02-20T06:04:29.222Z,25.80
2018-02-20T06:06:57.398Z,23.75
2018-02-20T06:09:25.582Z,24.90
2018-02-20T06:11:53.858Z,26.20
2018-02-20T06:14:21.916Z,27.37
2018-02-20T06:16:50.143Z,27.37
2018-02-20T06:19:18.985Z,27.23
2018-02-20T06:21:47.159Z,25.15
2018-02-20T06:24:15.225Z,26.27
2018-02-20T06:26:43.195Z,25.52
2018-02-20T06:29:11.373Z,24.85
2018-02-20T06:31:39.550Z,29.87
2018-02-20T06:34:07.727Z,28.02
2018-02-20T06:36:35.785Z,26.37
2018-02-20T06:39:03.958Z,26.37
2018-02-20T06:41:32.854Z,28.75
2018-02-20T06:44:01.754Z,27.00
2018-02-20T06:46:29.924Z,27.33
2018-02-20T06:49:00.659Z,28.45
2018-02-20T06:51:28.832Z,27.02
2018-02-20T06:53:57.006Z,23.98
2018-02-20T06:56:26.000Z,27.55
2018-02-20T06:58:53.955Z,27.15
2018-02-20T07:01:22.143Z,26.60
2018-02-20T07:03:50.199Z,30.15
2018-02-20T07:06:18.376Z,26.65
2018-02-20T07:08:46.904Z,26.40
2018-02-20T07:11:14.926Z,25.42
2018-02-20T07:13:42.999Z,25.10
2018-02-20T07:16:11.683Z,25.27
2018-02-20T07:18:39.766Z,27.95
2018-02-20T07:21:08.040Z,25.10
2018-02-20T07:23:37.023Z,27.58
2018-02-20T07:26:05.813Z,26.92
2018-02-20T07:28:33.889Z,25.23
2018-02-20T07:31:01.957Z,27.40
2018-02-20T07:33:30.126Z,26.80
2018-02-20T07:35:58.196Z,27.25
2018-02-20T07:38:26.411Z,24.98
2018-02-20T07:40:54.513Z,25.95
2018-02-20T07:43:22.616Z,23.98
2018-02-20T07:45:51.716Z,26.95
2018-02-20T07:48:19.996Z,24.45
2018-02-20T07:50:48.170Z,26.33
2018-02-20T07:53:16.344Z,25.05
2018-02-20T07:55:44.517Z,26.08
2018-02-20T07:58:12.683Z,25.05
2018-02-20T08:00:40.755Z,27.08
2018-02-20T08:03:09.037Z,27.58
2018-02-20T08:05:37.096Z,32.90
2018-02-20T08:08:05.282Z,31.20
2018-02-20T08:10:33.443Z,29.25
2018-02-20T08:13:01.617Z,27.25
2018-02-20T08:15:29.802Z,27.20
2018-02-20T08:17:57.964Z,25.10
2018-02-20T08:20:25.933Z,26.15
2018-02-20T08:22:54.118Z,23.62
2018-02-20T08:25:22.178Z,24.63
2018-02-20T08:27:50.262Z,25.80
2018-02-20T08:30:18.319Z,23.40
2018-02-20T08:32:46.499Z,22.73
2018-02-20T08:35:15.385Z,23.30
2018-02-20T08:37:43.466Z,23.30
2018-02-20T08:40:12.350Z,26.90
2018-02-20T08:42:40.419Z,24.00
2018-02-20T08:45:09.204Z,24.08
2018-02-20T08:47:37.391Z,25.45
2018-02-20T08:50:05.586Z,26.50
2018-02-20T08:52:34.558Z,26.58
2018-02-20T08:55:02.719Z,24.25
2018-02-20T08:57:31.609Z,23.05
2018-02-20T08:59:59.785Z,23.95
2018-02-20T09:02:27.788Z,27.58
2018-02-20T09:04:56.653Z,24.35
2018-02-20T09:07:24.822Z,25.20
2018-02-20T09:09:52.883Z,25.92
2018-02-20T09:12:21.881Z,24.20
2018-02-20T09:14:50.061Z,26.37
2018-02-20T09:17:18.237Z,25.80
2018-02-20T09:19:47.126Z,24.27
2018-02-20T09:22:15.252Z,24.02
2018-02-20T09:24:43.576Z,26.45
2018-02-20T09:27:12.658Z,26.55
2018-02-20T09:29:40.831Z,25.30
2018-02-20T09:32:08.918Z,25.62
2018-02-20T09:34:37.082Z,24.70
2018-02-20T09:37:05.159Z,25.42
2018-02-20T09:39:33.332Z,25.70
2018-02-20T09:42:01.506Z,24.05
2018-02-20T09:44:29.831Z,27.15
2018-02-20T09:46:57.841Z,26.95
2018-02-20T09:49:26.936Z,25.58
2018-02-20T09:51:55.008Z,24.08
2018-02-20T09:54:23.187Z,25.35
2018-02-20T09:56:51.367Z,24.20
2018-02-20T09:59:19.659Z,24.75
2018-02-20T10:01:48.520Z,26.02
2018-02-20T10:04:16.489Z,25.62
2018-02-20T10:06:44.565Z,25.88
2018-02-20T10:09:12.736Z,23.75
2018-02-20T10:11:40.805Z,28.23
2018-02-20T10:14:08.879Z,26.20
2018-02-20T10:16:37.227Z,28.35
2018-02-20T10:19:05.325Z,27.35
2018-02-20T10:21:33.511Z,26.42
2018-02-20T10:24:01.787Z,23.25
2018-02-20T10:26:30.774Z,28.65
2018-02-20T10:28:58.944Z,28.55
2018-02-20T10:31:27.012Z,27.80
2018-02-20T10:33:55.198Z,25.00
2018-02-20T10:36:23.372Z,25.20
2018-02-20T10:38:51.544Z,24.65
2018-02-20T10:41:19.604Z,26.23
2018-02-20T10:43:47.789Z,25.10
2018-02-20T10:46:15.848Z,25.25
2018-02-20T10:48:44.025Z,23.35
2018-02-20T10:51:12.122Z,23.87
2018-02-20T10:53:41.200Z,23.38
2018-02-20T10:56:10.079Z,21.60
2018-02-20T10:58:38.162Z,21.98
2018-02-20T11:01:14.732Z,24.80
2018-02-20T11:03:55.463Z,20.25
2018-02-20T11:06:33.214Z,22.65
2018-02-20T11:09:04.597Z,20.70
2018-02-20T11:11:38.442Z,22.80
2018-02-20T11:14:12.264Z,24.02
2018-02-20T11:16:40.432Z,19.35
2018-02-20T11:19:08.596Z,17.77
2018-02-20T11:21:36.667Z,21.20
2018-02-20T11:24:06.385Z,20.95
2018-02-20T11:26:34.550Z,20.05
2018-02-20T11:29:02.517Z,18.90
2018-02-20T11:31:30.702Z,18.50
2018-02-20T11:33:58.775Z,21.25
2018-02-20T11:36:27.446Z,21.15
2018-02-20T11:38:55.631Z,20.83
2018-02-20T11:41:23.798Z,19.15
2018-02-20T11:43:51.877Z,19.98
2018-02-20T11:46:20.042Z,18.77
2018-02-20T11:48:48.010Z,17.77
2018-02-20T11:51:16.077Z,18.10
2018-02-20T11:53:44.158Z,19.77
2018-02-20T11:56:12.325Z,19.30
2018-02-20T11:58:40.409Z,20.37
2018-02-20T12:01:08.567Z,17.70
2018-02-20T12:03:36.641Z,18.10
2018-02-20T12:06:04.928Z,18.92
2018-02-20T12:08:32.988Z,19.40
2018-02-20T12:11:01.061Z,17.65
2018-02-20T12:13:29.127Z,20.77
2018-02-20T12:15:57.314Z,21.62
2018-02-20T12:18:25.372Z,22.75
2018-02-20T12:20:53.558Z,22.30
2018-02-20T12:23:21.723Z,23.87
2018-02-20T12:25:49.906Z,20.62
2018-02-20T12:28:18.068Z,18.83
2018-02-20T12:30:46.035Z,19.30
2018-02-20T12:33:14.212Z,17.42
2018-02-20T12:35:43.102Z,20.60
2018-02-20T12:38:11.386Z,20.08
2018-02-20T12:40:39.450Z,20.30
2018-02-20T12:43:07.521Z,19.87
2018-02-20T12:45:35.598Z,21.70
2018-02-20T12:48:03.764Z,20.58
2018-02-20T12:50:31.946Z,19.62
2018-02-20T12:53:00.631Z,21.05
2018-02-20T12:55:29.612Z,19.62
2018-02-20T12:57:57.580Z,21.77
2018-02-20T13:00:25.655Z,21.80
2018-02-20T13:02:54.451Z,21.27
2018-02-20T13:05:22.513Z,22.13
2018-02-20T13:07:50.581Z,19.55
2018-02-20T13:10:19.484Z,19.73
2018-02-20T13:12:47.547Z,18.20
2018-02-20T13:15:15.732Z,20.30
2018-02-20T13:17:43.893Z,20.52
2018-02-20T13:20:12.076Z,17.73
2018-02-20T13:22:40.240Z,16.02
2018-02-20T13:25:08.308Z,19.02
2018-02-20T13:27:36.495Z,19.45
2018-02-20T13:30:04.552Z,17.20
2018-02-20T13:32:32.630Z,16.80
2018-02-20T13:35:01.543Z,18.35
2018-02-20T13:37:30.304Z,17.00
2018-02-20T13:39:58.480Z,17.30
2018-02-20T13:42:26.652Z,18.48
2018-02-20T13:44:54.768Z,16.05
2018-02-20T13:47:23.818Z,17.80
2018-02-20T13:49:52.001Z,17.80
2018-02-20T13:52:20.164Z,18.25
2018-02-20T13:54:48.236Z,16.37
2018-02-20T13:57:16.410Z,17.10
2018-02-20T13:59:44.580Z,17.60
2018-02-20T14:02:12.766Z,18.60
2018-02-20T14:04:40.927Z,18.90
2018-02-20T14:07:09.113Z,16.50
2018-02-20T14:09:37.283Z,16.08
2018-02-20T14:12:05.563Z,18.35
2018-02-20T14:14:33.622Z,18.40
2018-02-20T14:17:01.834Z,16.75
2018-02-20T14:19:30.689Z,18.27
2018-02-20T14:21:58.970Z,18.25
2018-02-20T14:24:27.863Z,17.60
2018-02-20T14:26:56.038Z,17.65
2018-02-20T14:29:24.198Z,17.87
2018-02-20T14:31:52.784Z,17.95
2018-02-20T14:34:20.856Z,18.02
2018-02-20T14:36:49.039Z,18.25
2018-02-20T14:39:17.316Z,17.00
2018-02-20T14:41:45.489Z,17.90
2018-02-20T14:44:13.662Z,18.20
2018-02-20T14:46:41.826Z,18.60
2018-02-20T14:49:10.000Z,18.17
2018-02-20T14:51:38.080Z,17.30
2018-02-20T14:54:06.240Z,17.05
2018-02-20T14:56:34.312Z,17.98
2018-02-20T14:59:03.202Z,17.35
2018-02-20T15:01:31.273Z,18.23
2018-02-20T15:03:59.354Z,19.05
2018-02-20T15:06:27.530Z,18.42
2018-02-20T15:08:55.589Z,19.05
2018-02-20T15:11:23.763Z,19.15
2018-02-20T15:13:51.842Z,19.45
2018-02-20T15:16:20.122Z,18.50
2018-02-20T15:18:48.287Z,17.70
2018-02-20T15:21:16.468Z,18.95
2018-02-20T15:23:44.528Z,17.77
2018-02-20T15:26:12.608Z,18.80
2018-02-20T15:28:40.771Z,19.55
2018-02-20T15:31:08.958Z,18.17
2018-02-20T15:33:37.119Z,20.10
2018-02-20T15:36:05.407Z,16.95
2018-02-20T15:38:34.390Z,19.15
2018-02-20T15:41:02.572Z,19.87
2018-02-20T15:43:30.735Z,19.87
2018-02-20T15:45:58.908Z,19.37
2018-02-20T15:48:27.095Z,19.42
2018-02-20T15:50:55.267Z,21.17
2018-02-20T15:53:23.429Z,17.92
2018-02-20T15:55:51.614Z,20.00
2018-02-20T15:58:19.788Z,21.60
2018-02-20T16:00:48.063Z,19.12
2018-02-20T16:03:17.970Z,18.70
2018-02-20T16:05:46.181Z,19.62
2018-02-20T16:08:14.312Z,19.90
2018-02-20T16:10:43.215Z,20.40
2018-02-20T16:13:11.184Z,20.65
2018-02-20T16:15:42.006Z,22.05
2018-02-20T16:18:10.538Z,20.83
2018-02-20T16:20:38.663Z,21.42
2018-02-20T16:23:06.834Z,20.70
2018-02-20T16:25:35.122Z,19.90
2018-02-20T16:28:03.398Z,19.70
2018-02-20T16:30:31.571Z,18.42
2018-02-20T16:32:59.737Z,22.37
2018-02-20T16:35:27.805Z,20.95
2018-02-20T16:37:56.604Z,20.40
2018-02-20T16:40:24.768Z,31.92
2018-02-20T16:42:53.566Z,19.58
2018-02-20T16:45:21.739Z,20.12
2018-02-20T16:47:50.803Z,18.90
2018-02-20T16:50:19.715Z,26.15
2018-02-20T16:52:47.788Z,19.10
2018-02-20T16:55:15.963Z,23.98
2018-02-20T16:57:44.131Z,17.62
2018-02-20T17:00:12.418Z,16.50
2018-02-20T17:02:40.591Z,18.90
2018-02-20T17:05:08.756Z,19.62
2018-02-20T17:07:36.938Z,17.70
2018-02-20T17:10:05.105Z,18.45
2018-02-20T17:12:33.171Z,20.27
2018-02-20T17:15:01.357Z,20.88
2018-02-20T17:17:29.416Z,20.37
2018-02-20T17:19:57.697Z,19.70
2018-02-20T17:22:25.763Z,19.48
2018-02-20T17:24:53.839Z,19.80
2018-02-20T17:27:23.556Z,16.65
2018-02-20T17:29:52.434Z,18.60
2018-02-20T17:32:20.619Z,17.45
2018-02-20T17:34:48.791Z,19.35
2018-02-20T17:37:16.954Z,19.83
2018-02-20T17:39:45.170Z,18.12
2018-02-20T17:42:14.338Z,20.15
2018-02-20T17:44:42.958Z,19.75
2018-02-20T17:47:11.809Z,18.58
2018-02-20T17:49:39.984Z,20.10
2018-02-20T17:52:09.902Z,19.55
2018-02-20T17:54:37.957Z,20.08
2018-02-20T17:57:06.134Z,21.25
2018-02-20T17:59:34.204Z,18.73
2018-02-20T18:02:03.808Z,22.20
2018-02-20T18:04:31.880Z,23.05
2018-02-20T18:06:59.956Z,24.80
2018-02-20T18:09:28.022Z,23.15
2018-02-20T18:11:56.092Z,24.30
2018-02-20T18:14:24.280Z,21.70
2018-02-20T18:16:52.447Z,25.00
2018-02-20T18:19:20.614Z,24.95
2018-02-20T18:21:48.900Z,27.17
2018-02-20T18:24:17.075Z,34.30
2018-02-20T18:26:45.803Z,27.95
2018-02-20T18:29:14.978Z,24.90
2018-02-20T18:31:43.762Z,25.60
2018-02-20T18:34:12.872Z,26.50
2018-02-20T18:36:45.156Z,31.92
2018-02-20T18:39:16.425Z,27.17
2018-02-20T18:41:49.956Z,28.02
2018-02-20T18:44:22.981Z,27.23
2018-02-20T18:46:54.305Z,25.40
2018-02-20T18:49:27.203Z,25.65
2018-02-20T18:51:59.315Z,27.50
2018-02-20T18:54:31.181Z,28.55
2018-02-20T18:57:05.956Z,26.65
2018-02-20T18:59:38.509Z,26.67
2018-02-20T19:02:11.579Z,27.30
2018-02-20T19:04:46.679Z,26.65
2018-02-20T19:07:21.126Z,26.15
2018-02-20T19:09:53.659Z,28.30
2018-02-20T19:12:26.726Z,27.33
2018-02-20T19:14:58.832Z,28.20
2018-02-20T19:17:31.408Z,32.85
2018-02-20T19:20:04.155Z,31.17
2018-02-20T19:22:37.095Z,29.98
2018-02-20T19:25:11.286Z,28.02
2018-02-20T19:27:45.952Z,29.80
2018-02-20T19:30:17.957Z,28.80
2018-02-20T19:32:48.916Z,29.48
2018-02-20T19:35:23.409Z,31.12
2018-02-20T19:37:55.867Z,31.60
2018-02-20T19:40:29.750Z,30.37
2018-02-20T19:43:01.518Z,28.75
2018-02-20T19:45:33.389Z,33.33
2018-02-20T19:48:05.876Z,33.00
2018-02-20T19:50:37.497Z,32.78
2018-02-20T19:53:08.545Z,32.40
2018-02-20T19:55:40.512Z,30.60
2018-02-20T19:58:12.001Z,32.00
2018-02-20T20:00:43.298Z,31.45
2018-02-20T20:03:17.244Z,31.65
2018-02-20T20:05:49.923Z,34.00
2018-02-20T20:08:26.665Z,35.28
2018-02-20T20:10:58.208Z,32.47
2018-02-20T20:13:35.618Z,34.03
2018-02-20T20:16:06.840Z,33.60
2018-02-20T20:18:39.625Z,34.72
2018-02-20T20:21:09.839Z,36.17
2018-02-20T20:23:43.442Z,36.83
2018-02-20T20:26:14.070Z,34.03
2018-02-20T20:31:27.494Z,34.17
2018-02-20T20:34:02.725Z,33.42
2018-02-20T20:36:35.586Z,34.58
2018-02-20T20:39:08.509Z,38.58
2018-02-20T20:41:40.891Z,34.78
2018-02-20T20:44:13.892Z,36.42
2018-02-20T20:46:47.269Z,38.13
2018-02-20T20:49:19.547Z,37.80
2018-02-20T20:51:55.744Z,37.83
2018-02-20T20:54:26.872Z,35.55
2018-02-20T20:56:59.264Z,38.38
2018-02-20T20:59:31.300Z,35.38
2018-02-20T21:02:06.110Z,39.47
2018-02-20T21:04:38.466Z,41.47
2018-02-20T21:07:10.709Z,39.45
2018-02-20T21:09:43.736Z,39.53
2018-02-20T21:12:14.454Z,39.08
2018-02-20T21:14:46.163Z,39.95
2018-02-20T21:17:20.816Z,37.53
2018-02-20T21:19:54.514Z,38.85
2018-02-20T21:22:30.193Z,39.72
2018-02-20T21:25:01.758Z,39.58
2018-02-20T21:27:36.699Z,39.08
2018-02-20T21:30:13.608Z,40.20
2018-02-20T21:32:47.174Z,39.40
2018-02-20T21:35:20.055Z,41.40
2018-02-20T21:37:53.858Z,42.83
2018-02-20T21:40:25.229Z,49.10
2018-02-20T21:42:56.947Z,44.10
2018-02-20T21:45:28.391Z,39.00
2018-02-20T21:47:59.162Z,42.90
2018-02-20T21:50:31.871Z,43.85
2018-02-20T21:53:05.006Z,43.60
2018-02-20T21:55:38.144Z,46.17
2018-02-20T21:58:12.766Z,41.55
2018-02-20T22:00:53.340Z,42.15
2018-02-20T22:03:28.829Z,45.97
2018-02-20T22:06:00.285Z,43.38
2018-02-20T22:08:32.156Z,50.00
2018-02-20T22:11:03.912Z,44.47
2018-02-20T22:13:35.941Z,49.78
2018-02-20T22:16:07.094Z,50.38
2018-02-20T22:18:37.774Z,44.88
2018-02-20T22:21:09.342Z,43.63
2018-02-20T22:23:40.904Z,44.20
2018-02-20T22:26:12.232Z,47.80
2018-02-20T22:28:42.608Z,45.60
2018-02-20T22:31:13.330Z,47.38
2018-02-20T22:33:43.351Z,48.47
2018-02-20T22:36:14.476Z,46.00
2018-02-20T22:38:46.050Z,45.17
2018-02-20T22:41:17.976Z,46.88
2018-02-20T22:43:47.474Z,47.55
2018-02-20T22:46:16.611Z,47.53
2018-02-20T22:48:47.926Z,45.53
2018-02-20T22:51:20.337Z,48.97
2018-02-20T22:53:52.664Z,45.83
2018-02-20T22:56:23.644Z,43.95
2018-02-20T22:58:55.350Z,45.38
2018-02-20T23:01:24.930Z,44.95
2018-02-20T23:03:54.836Z,44.15
2018-02-20T23:06:24.822Z,42.38
2018-02-20T23:08:56.412Z,47.40
2018-02-20T23:11:38.500Z,44.92
2018-02-20T23:14:09.620Z,43.55
2018-02-20T23:16:39.808Z,43.28
2018-02-20T23:19:08.656Z,41.50
2018-02-20T23:21:37.485Z,41.88
2018-02-20T23:24:06.079Z,42.28
2018-02-20T23:26:35.040Z,43.17
2018-02-20T23:29:05.114Z,40.67
2018-02-20T23:31:34.558Z,42.65
2018-02-20T23:34:04.287Z,42.30
2018-02-20T23:36:33.959Z,40.40
2018-02-20T23:39:03.502Z,40.38
2018-02-20T23:41:32.341Z,40.03
2018-02-20T23:44:01.208Z,41.92
2018-02-20T23:46:31.094Z,39.13
2018-02-20T23:48:59.722Z,40.35
2018-02-20T23:51:34.279Z,38.80
2018-02-20T23:54:03.228Z,38.55
2018-02-20T23:56:33.279Z,42.28
2018-02-20T23:59:02.784Z,42.03
